Time;durP1;ratioP1;P1;durP2;ratioP2;P2;SDS_P1;SDS_P2;PMS_P1;PMS_P2;Temp;Humidity;BMP_temperature;BMP_pressure;BME280_temperature;BME280_humidity;BME280_pressure;Samples;Min_cycle;Max_cycle;Signal;HPM_P1;HPM_P2
2022/10/02 00:02:59;;;;;;;3.67;3.45;;;;;;;;;;6369583;27;20374;-74
2022/10/02 00:06:10;;;;;;;0.93;0.93;;;;;;;;;;6356973;27;20016;-74
2022/10/02 00:09:14;;;;;;;2.40;1.67;;;;;;;;;;6359490;27;20043;-75
2022/10/02 00:12:17;;;;;;;1.67;1.58;;;;;;;;;;6355082;27;20027;-74
2022/10/02 00:15:21;;;;;;;1.05;1.05;;;;;;;;;;6335507;27;20022;-74
2022/10/02 00:18:23;;;;;;;1.75;1.65;;;;;;;;;;6367761;27;20027;-74
2022/10/02 00:21:23;;;;;;;1.52;1.42;;;;;;;;;;6365366;27;20011;-74
2022/10/02 00:24:26;;;;;;;1.50;1.50;;;;;;;;;;6367703;27;20446;-75
2022/10/02 00:27:32;;;;;;;1.42;1.35;;;;;;;;;;6354120;27;20011;-75
2022/10/02 00:30:35;;;;;;;1.52;1.42;;;;;;;;;;6360076;27;20100;-74
2022/10/02 00:33:46;;;;;;;0.80;0.80;;;;;;;;;;6361835;27;20094;-74
2022/10/02 00:36:50;;;;;;;1.42;1.23;;;;;;;;;;6346111;27;20082;-74
2022/10/02 00:39:53;;;;;;;1.50;0.98;;;;;;;;;;6361617;27;20012;-75
2022/10/02 00:42:56;;;;;;;0.70;0.70;;;;;;;;;;6355716;27;20119;-75
2022/10/02 00:46:18;;;;;;;3.92;2.92;;;;;;;;;;6363674;27;20019;-75
2022/10/02 00:49:28;;;;;;;2.50;2.37;;;;;;;;;;6360885;27;20034;-75
2022/10/02 00:52:37;;;;;;;0.25;0.25;;;;;;;;;;6355813;27;20027;-74
2022/10/02 00:55:38;;;;;;;0.17;0.17;;;;;;;;;;6340526;27;20402;-74
2022/10/02 00:58:45;;;;;;;0.40;0.40;;;;;;;;;;6352415;27;20051;-74
2022/10/02 01:01:45;;;;;;;0.95;0.95;;;;;;;;;;6362281;27;20467;-74
2022/10/02 01:04:46;;;;;;;0.82;0.82;;;;;;;;;;6363408;27;20488;-74
2022/10/02 01:07:49;;;;;;;1.00;0.70;;;;;;;;;;6367149;27;20558;-74
2022/10/02 01:10:49;;;;;;;0.30;0.30;;;;;;;;;;6358001;27;20107;-74
2022/10/02 01:13:50;;;;;;;1.40;1.30;;;;;;;;;;6350734;27;20008;-74
2022/10/02 01:16:50;;;;;;;0.43;0.43;;;;;;;;;;6364031;27;20038;-75
2022/10/02 01:19:50;;;;;;;3.88;2.40;;;;;;;;;;6358506;27;20359;-75
2022/10/02 01:22:58;;;;;;;1.60;1.03;;;;;;;;;;6361298;27;20014;-74
2022/10/02 01:25:58;;;;;;;0.77;0.77;;;;;;;;;;6364654;27;20104;-74
2022/10/02 01:28:58;;;;;;;1.07;0.93;;;;;;;;;;6352250;27;20023;-74
2022/10/02 01:31:59;;;;;;;1.90;1.80;;;;;;;;;;6354558;27;20023;-74
2022/10/02 01:34:59;;;;;;;4.73;3.57;;;;;;;;;;6356539;27;20098;-75
2022/10/02 01:38:02;;;;;;;0.43;0.43;;;;;;;;;;6347554;27;20024;-75
2022/10/02 01:41:02;;;;;;;1.23;1.23;;;;;;;;;;6354896;27;20028;-76
2022/10/02 01:44:02;;;;;;;0.53;0.53;;;;;;;;;;6362048;27;20050;-74
2022/10/02 01:47:06;;;;;;;1.60;1.47;;;;;;;;;;6354321;27;20011;-74
2022/10/02 01:50:10;;;;;;;0.65;0.65;;;;;;;;;;6358548;27;20015;-74
2022/10/02 01:53:23;;;;;;;0.75;0.75;;;;;;;;;;6365208;27;20443;-75
2022/10/02 01:56:23;;;;;;;0.50;0.50;;;;;;;;;;6354021;27;20050;-74
2022/10/02 01:59:32;;;;;;;1.48;1.38;;;;;;;;;;6357182;27;20015;-75
2022/10/02 02:02:56;;;;;;;1.25;1.15;;;;;;;;;;6357882;27;20094;-75
2022/10/02 02:06:03;;;;;;;1.15;1.10;;;;;;;;;;6312027;27;20059;-75
2022/10/02 02:09:11;;;;;;;1.05;1.02;;;;;;;;;;6360871;27;20470;-74
2022/10/02 02:12:16;;;;;;;0.85;0.85;;;;;;;;;;6360886;27;20011;-74
2022/10/02 02:15:24;;;;;;;2.03;1.92;;;;;;;;;;6362068;27;20015;-74
2022/10/02 02:18:26;;;;;;;2.45;1.45;;;;;;;;;;6354854;27;20072;-75
2022/10/02 02:21:33;;;;;;;0.90;0.90;;;;;;;;;;6354623;27;20027;-76
2022/10/02 02:24:35;;;;;;;1.77;1.67;;;;;;;;;;6347893;27;20379;-74
2022/10/02 02:27:38;;;;;;;3.53;2.42;;;;;;;;;;6344810;27;20032;-75
2022/10/02 02:30:40;;;;;;;1.02;1.02;;;;;;;;;;6361396;27;20026;-75
2022/10/02 02:33:52;;;;;;;1.48;1.38;;;;;;;;;;6364567;27;20401;-74
2022/10/02 02:36:55;;;;;;;1.48;1.38;;;;;;;;;;6349568;27;20114;-74
2022/10/02 02:40:01;;;;;;;0.50;0.50;;;;;;;;;;6359726;27;20034;-75
2022/10/02 02:43:03;;;;;;;0.75;0.75;;;;;;;;;;6358153;27;20511;-75
2022/10/02 02:46:10;;;;;;;0.50;0.50;;;;;;;;;;6355559;27;20011;-74
2022/10/02 02:49:10;;;;;;;2.63;0.88;;;;;;;;;;6357660;27;20023;-75
2022/10/02 02:52:13;;;;;;;0.30;0.30;;;;;;;;;;6354962;27;20023;-76
2022/10/02 02:55:18;;;;;;;4.32;2.47;;;;;;;;;;6344994;27;20483;-75
2022/10/02 02:58:27;;;;;;;2.72;2.17;;;;;;;;;;6347425;27;20051;-75
2022/10/02 03:01:27;;;;;;;1.10;1.05;;;;;;;;;;6337439;27;20078;-74
2022/10/02 03:04:27;;;;;;;1.45;1.35;;;;;;;;;;6352957;27;20463;-74
2022/10/02 03:07:28;;;;;;;0.63;0.63;;;;;;;;;;6353296;27;20077;-74
2022/10/02 03:10:36;;;;;;;1.67;1.27;;;;;;;;;;6348829;27;20035;-74
2022/10/02 03:13:37;;;;;;;0.95;0.88;;;;;;;;;;6359453;27;20390;-75
2022/10/02 03:16:46;;;;;;;0.75;0.75;;;;;;;;;;6353818;27;20501;-74
2022/10/02 03:20:00;;;;;;;0.45;0.45;;;;;;;;;;6333506;27;20378;-75
2022/10/02 03:23:19;;;;;;;0.82;0.82;;;;;;;;;;6354053;27;20122;-75
2022/10/02 03:26:40;;;;;;;0.82;0.82;;;;;;;;;;6348819;27;20031;-75
2022/10/02 03:29:50;;;;;;;3.75;1.45;;;;;;;;;;6351549;28;20131;-75
2022/10/02 03:32:52;;;;;;;1.45;1.35;;;;;;;;;;6347673;28;20030;-74
2022/10/02 03:35:53;;;;;;;0.20;0.20;;;;;;;;;;6342307;28;20123;-75
2022/10/02 03:38:55;;;;;;;0.73;0.73;;;;;;;;;;6359451;28;20467;-74
2022/10/02 03:41:55;;;;;;;;;;;;;;;;;;6353192;28;20394;-74
2022/10/02 03:44:55;;;;;;;0.80;0.80;;;;;;;;;;6350099;28;19946;-75
2022/10/02 03:47:55;;;;;;;1.42;1.33;;;;;;;;;;6357836;28;20545;-74
2022/10/02 03:50:55;;;;;;;0.73;0.70;;;;;;;;;;6357528;28;20027;-74
2022/10/02 03:53:56;;;;;;;1.45;1.35;;;;;;;;;;6355875;28;20112;-76
2022/10/02 03:56:57;;;;;;;1.50;1.23;;;;;;;;;;6365433;28;20054;-75
2022/10/02 04:00:11;;;;;;;0.60;0.60;;;;;;;;;;6354825;28;20524;-75
2022/10/02 04:03:14;;;;;;;1.02;0.95;;;;;;;;;;6331206;28;20060;-74
2022/10/02 04:06:17;;;;;;;2.33;0.82;;;;;;;;;;6348863;28;20025;-75
2022/10/02 04:09:24;;;;;;;0.98;0.98;;;;;;;;;;6352214;28;20484;-74
2022/10/02 04:12:33;;;;;;;0.90;0.90;;;;;;;;;;6350055;28;20501;-75
2022/10/02 04:15:33;;;;;;;0.40;0.40;;;;;;;;;;6358671;28;20747;-74
2022/10/02 04:18:40;;;;;;;1.92;1.77;;;;;;;;;;6349132;28;20018;-75
2022/10/02 04:21:43;;;;;;;4.90;2.22;;;;;;;;;;6363494;28;20466;-74
2022/10/02 04:24:48;;;;;;;1.38;1.27;;;;;;;;;;6330807;28;20042;-74
2022/10/02 04:28:02;;;;;;;1.10;1.08;;;;;;;;;;6356827;28;20023;-74
2022/10/02 04:31:07;;;;;;;5.10;1.92;;;;;;;;;;6356016;27;20025;-75
2022/10/02 04:34:11;;;;;;;0.15;0.15;;;;;;;;;;6352903;27;20023;-74
2022/10/02 04:37:14;;;;;;;4.20;1.10;;;;;;;;;;6353832;27;20039;-74
2022/10/02 04:40:17;;;;;;;0.82;0.82;;;;;;;;;;6359035;27;20471;-74
2022/10/02 04:43:36;;;;;;;0.70;0.70;;;;;;;;;;6369368;27;20023;-74
2022/10/02 04:46:47;;;;;;;0.70;0.70;;;;;;;;;;6353581;27;20022;-75
2022/10/02 04:50:00;;;;;;;0.28;0.28;;;;;;;;;;6359154;27;20057;-74
2022/10/02 04:53:00;;;;;;;2.75;2.50;;;;;;;;;;6352397;27;20388;-75
2022/10/02 04:56:25;;;;;;;1.38;1.27;;;;;;;;;;6341241;27;20455;-74
2022/10/02 04:59:26;;;;;;;1.13;1.10;;;;;;;;;;6344301;27;20023;-75
2022/10/02 05:02:32;;;;;;;2.10;1.20;;;;;;;;;;6359473;27;20023;-74
2022/10/02 05:05:50;;;;;;;1.60;1.50;;;;;;;;;;6357368;27;20078;-74
2022/10/02 05:09:09;;;;;;;2.20;0.98;;;;;;;;;;6358935;27;20047;-74
2022/10/02 05:12:12;;;;;;;0.88;0.68;;;;;;;;;;6353230;27;20427;-75
2022/10/02 05:15:21;;;;;;;1.05;1.05;;;;;;;;;;6366944;27;20031;-75
2022/10/02 05:18:36;;;;;;;1.48;1.38;;;;;;;;;;6352088;27;20455;-74
2022/10/02 05:21:39;;;;;;;0.30;0.30;;;;;;;;;;6335849;27;20050;-74
2022/10/02 05:24:51;;;;;;;0.73;0.73;;;;;;;;;;6367346;27;20027;-74
2022/10/02 05:28:10;;;;;;;1.40;1.35;;;;;;;;;;6341526;27;20054;-75
2022/10/02 05:31:10;;;;;;;0.30;0.30;;;;;;;;;;6365516;27;20049;-74
2022/10/02 05:34:10;;;;;;;1.60;1.50;;;;;;;;;;6364489;27;20019;-74
2022/10/02 05:37:19;;;;;;;0.60;0.60;;;;;;;;;;6361170;27;20136;-75
2022/10/02 05:40:19;;;;;;;1.45;1.27;;;;;;;;;;6356963;27;20118;-75
2022/10/02 05:43:25;;;;;;;0.60;0.60;;;;;;;;;;6366091;27;20026;-75
2022/10/02 05:46:27;;;;;;;5.90;1.38;;;;;;;;;;6363312;27;20015;-74
2022/10/02 05:49:27;;;;;;;0.65;0.65;;;;;;;;;;6344192;27;20034;-74
2022/10/02 05:52:33;;;;;;;0.20;0.20;;;;;;;;;;6370401;27;20027;-76
2022/10/02 05:55:38;;;;;;;0.47;0.47;;;;;;;;;;6353649;27;20084;-75
2022/10/02 05:58:48;;;;;;;0.43;0.43;;;;;;;;;;6343224;27;20118;-74
2022/10/02 06:01:49;;;;;;;7.32;1.05;;;;;;;;;;6361542;27;20018;-74
2022/10/02 06:05:12;;;;;;;0.17;0.17;;;;;;;;;;6366964;27;20019;-74
2022/10/02 06:08:14;;;;;;;1.45;1.33;;;;;;;;;;6346297;27;20027;-75
2022/10/02 06:11:14;;;;;;;0.55;0.55;;;;;;;;;;6352484;27;20019;-75
2022/10/02 06:14:36;;;;;;;1.55;1.20;;;;;;;;;;6333296;27;20092;-76
2022/10/02 06:17:41;;;;;;;1.93;1.33;;;;;;;;;;6352291;27;20113;-75
2022/10/02 06:20:45;;;;;;;0.63;0.63;;;;;;;;;;6333071;27;20393;-75
2022/10/02 06:23:48;;;;;;;1.90;0.90;;;;;;;;;;6353150;27;20094;-75
2022/10/02 06:27:12;;;;;;;0.43;0.43;;;;;;;;;;6353682;27;20019;-74
2022/10/02 06:30:16;;;;;;;0.82;0.82;;;;;;;;;;6350063;27;20043;-74
2022/10/02 06:33:23;;;;;;;2.65;1.50;;;;;;;;;;6361681;27;20031;-74
2022/10/02 06:36:32;;;;;;;6.00;1.25;;;;;;;;;;6362083;27;20019;-74
2022/10/02 06:39:35;;;;;;;0.63;0.55;;;;;;;;;;6343275;27;20046;-74
2022/10/02 06:42:44;;;;;;;8.35;3.63;;;;;;;;;;6355909;27;20012;-75
2022/10/02 06:45:55;;;;;;;0.88;0.70;;;;;;;;;;6357042;27;20499;-75
2022/10/02 06:49:00;;;;;;;1.73;1.63;;;;;;;;;;6359481;27;20015;-75
2022/10/02 06:52:16;;;;;;;0.75;0.75;;;;;;;;;;6368004;27;20019;-74
2022/10/02 06:55:16;;;;;;;5.30;2.00;;;;;;;;;;6366744;27;20520;-75
2022/10/02 06:58:25;;;;;;;2.25;1.88;;;;;;;;;;6367880;27;20039;-75
2022/10/02 07:01:45;;;;;;;1.33;1.23;;;;;;;;;;6360916;27;20102;-76
2022/10/02 07:05:00;;;;;;;1.13;1.13;;;;;;;;;;6352361;27;20091;-75
2022/10/02 07:08:10;;;;;;;3.92;1.00;;;;;;;;;;6327231;27;20023;-75
2022/10/02 07:11:11;;;;;;;4.55;2.97;;;;;;;;;;6360201;27;20019;-75
2022/10/02 07:14:14;;;;;;;1.10;1.10;;;;;;;;;;6363168;27;20235;-75
2022/10/02 07:17:20;;;;;;;0.65;0.65;;;;;;;;;;6363760;27;20018;-75
2022/10/02 07:20:37;;;;;;;0.85;0.85;;;;;;;;;;6356725;27;20591;-75
2022/10/02 07:23:40;;;;;;;0.85;0.85;;;;;;;;;;6362333;27;20412;-76
2022/10/02 07:27:00;;;;;;;0.35;0.35;;;;;;;;;;6359911;27;20015;-76
2022/10/02 07:30:06;;;;;;;0.65;0.43;;;;;;;;;;6341504;28;20075;-76
2022/10/02 07:33:18;;;;;;;0.80;0.80;;;;;;;;;;6349309;27;20106;-76
2022/10/02 07:36:18;;;;;;;1.40;1.30;;;;;;;;;;6362146;28;20019;-75
2022/10/02 07:39:18;;;;;;;0.98;0.98;;;;;;;;;;6358982;28;20015;-75
2022/10/02 07:42:28;;;;;;;0.73;0.73;;;;;;;;;;6356268;28;20027;-75
2022/10/02 07:45:28;;;;;;;2.30;1.60;;;;;;;;;;6343396;28;20058;-75
2022/10/02 07:48:41;;;;;;;4.90;1.93;;;;;;;;;;6354685;28;20057;-75
2022/10/02 07:51:50;;;;;;;1.75;1.65;;;;;;;;;;6343734;28;20521;-75
2022/10/02 07:54:57;;;;;;;0.75;0.75;;;;;;;;;;6352010;28;20019;-75
2022/10/02 07:58:12;;;;;;;0.38;0.38;;;;;;;;;;6355335;28;20390;-76
2022/10/02 08:01:16;;;;;;;0.45;0.45;;;;;;;;;;6346816;28;20064;-75
2022/10/02 08:04:21;;;;;;;0.75;0.75;;;;;;;;;;6359931;28;20095;-75
2022/10/02 08:07:21;;;;;;;1.27;1.25;;;;;;;;;;6339949;27;20022;-75
2022/10/02 08:10:24;;;;;;;1.00;0.93;;;;;;;;;;6367405;27;20011;-75
2022/10/02 08:13:34;;;;;;;2.72;1.58;;;;;;;;;;6366224;27;20018;-75
2022/10/02 08:16:39;;;;;;;1.05;1.05;;;;;;;;;;6362490;27;20437;-76
2022/10/02 08:19:42;;;;;;;0.82;0.73;;;;;;;;;;6359865;27;20493;-76
2022/10/02 08:22:45;;;;;;;0.75;0.75;;;;;;;;;;6349213;27;20019;-76
2022/10/02 08:25:49;;;;;;;0.90;0.70;;;;;;;;;;6364933;27;20031;-76
2022/10/02 08:28:56;;;;;;;0.50;0.50;;;;;;;;;;6361840;27;20019;-76
2022/10/02 08:31:57;;;;;;;4.05;0.50;;;;;;;;;;6339548;27;20100;-76
2022/10/02 08:34:59;;;;;;;0.77;0.67;;;;;;;;;;6342189;27;20026;-77
2022/10/02 08:38:11;;;;;;;0.25;0.25;;;;;;;;;;6360496;27;20026;-76
2022/10/02 08:41:11;;;;;;;0.20;0.20;;;;;;;;;;6360929;27;20066;-76
2022/10/02 08:44:20;;;;;;;0.20;0.20;;;;;;;;;;6357524;27;20011;-76
2022/10/02 08:47:53;;;;;;;3.83;1.08;;;;;;;;;;6356116;27;20086;-76
2022/10/02 08:51:02;;;;;;;0.63;0.63;;;;;;;;;;6350215;27;20034;-76
2022/10/02 08:54:22;;;;;;;2.47;1.45;;;;;;;;;;6349501;27;20043;-76
2022/10/02 08:57:31;;;;;;;0.17;0.17;;;;;;;;;;6360024;27;20043;-75
2022/10/02 09:00:37;;;;;;;0.10;0.10;;;;;;;;;;6366541;27;20019;-76
2022/10/02 09:03:53;;;;;;;0.57;0.57;;;;;;;;;;6369031;27;20506;-76
2022/10/02 09:07:02;;;;;;;0.93;0.73;;;;;;;;;;6362549;27;20054;-76
2022/10/02 09:10:21;;;;;;;1.63;0.60;;;;;;;;;;6343401;27;20030;-76
2022/10/02 09:13:30;;;;;;;0.55;0.55;;;;;;;;;;6363969;27;20030;-76
2022/10/02 09:16:51;;;;;;;1.90;1.75;;;;;;;;;;6362788;27;20015;-76
2022/10/02 09:19:54;;;;;;;0.32;0.32;;;;;;;;;;6322425;27;20035;-76
2022/10/02 09:23:09;;;;;;;0.10;0.10;;;;;;;;;;6361071;27;20618;-76
2022/10/02 09:26:15;;;;;;;3.45;0.32;;;;;;;;;;6363416;27;20038;-76
2022/10/02 09:29:29;;;;;;;0.35;0.35;;;;;;;;;;6363778;27;20098;-76
2022/10/02 09:32:33;;;;;;;2.45;1.30;;;;;;;;;;6359585;27;20417;-76
2022/10/02 09:35:39;;;;;;;0.20;0.20;;;;;;;;;;6336100;27;20050;-76
2022/10/02 09:39:00;;;;;;;1.35;1.25;;;;;;;;;;6363666;27;20026;-76
2022/10/02 09:42:19;;;;;;;16.93;2.43;;;;;;;;;;6343850;27;20095;-76
2022/10/02 09:45:36;;;;;;;1.25;1.15;;;;;;;;;;6363626;27;20695;-76
2022/10/02 09:48:49;;;;;;;0.55;0.55;;;;;;;;;;6363326;27;20043;-77
2022/10/02 09:52:08;;;;;;;1.38;0.95;;;;;;;;;;6339524;27;20031;-78
2022/10/02 09:55:11;;;;;;;0.10;0.10;;;;;;;;;;6339792;27;20462;-76
2022/10/02 09:58:20;;;;;;;0.65;0.65;;;;;;;;;;6356334;27;20515;-76
2022/10/02 10:01:35;;;;;;;0.52;0.40;;;;;;;;;;6353649;27;20027;-76
2022/10/02 10:04:40;;;;;;;1.45;1.17;;;;;;;;;;6350164;27;20011;-76
2022/10/02 10:07:49;;;;;;;0.28;0.28;;;;;;;;;;6356529;27;20424;-76
2022/10/02 10:11:00;;;;;;;4.28;2.65;;;;;;;;;;6344605;27;20174;-76
2022/10/02 10:14:00;;;;;;;1.98;1.38;;;;;;;;;;6365976;27;20016;-76
2022/10/02 10:17:07;;;;;;;1.50;1.40;;;;;;;;;;6351256;27;20019;-76
2022/10/02 10:20:14;;;;;;;2.00;1.20;;;;;;;;;;6336704;27;20032;-76
2022/10/02 10:23:20;;;;;;;0.30;0.30;;;;;;;;;;6362614;27;20024;-75
2022/10/02 10:26:26;;;;;;;0.32;0.32;;;;;;;;;;6365170;27;20505;-76
2022/10/02 10:29:27;;;;;;;7.68;1.00;;;;;;;;;;6357726;27;20469;-76
2022/10/02 10:32:45;;;;;;;5.77;2.37;;;;;;;;;;6358902;27;20063;-76
2022/10/02 10:35:57;;;;;;;0.82;0.70;;;;;;;;;;6352415;27;20016;-76
2022/10/02 10:39:12;;;;;;;1.65;0.65;;;;;;;;;;6350519;27;20022;-76
2022/10/02 10:42:32;;;;;;;0.30;0.30;;;;;;;;;;6348589;27;20383;-76
2022/10/02 10:45:52;;;;;;;1.17;0.65;;;;;;;;;;6342017;27;20103;-76
2022/10/02 10:49:11;;;;;;;0.50;0.50;;;;;;;;;;6357672;27;20016;-76
2022/10/02 10:52:31;;;;;;;0.73;0.55;;;;;;;;;;6344090;27;20026;-76
2022/10/02 10:55:37;;;;;;;0.55;0.55;;;;;;;;;;6341062;27;20031;-75
2022/10/02 10:58:49;;;;;;;0.52;0.52;;;;;;;;;;6366142;27;20035;-75
2022/10/02 11:01:50;;;;;;;0.30;0.30;;;;;;;;;;6361090;27;20099;-76
2022/10/02 11:04:51;;;;;;;0.03;0.03;;;;;;;;;;6364579;27;20470;-76
2022/10/02 11:08:11;;;;;;;0.15;0.15;;;;;;;;;;6353200;27;20039;-76
2022/10/02 11:11:23;;;;;;;0.43;0.43;;;;;;;;;;6355770;27;20424;-77
2022/10/02 11:14:41;;;;;;;1.45;1.35;;;;;;;;;;6358450;27;20014;-75
2022/10/02 11:17:47;;;;;;;1.40;0.98;;;;;;;;;;6359530;27;20022;-76
2022/10/02 11:20:50;;;;;;;0.20;0.20;;;;;;;;;;6342717;27;20023;-75
2022/10/02 11:24:01;;;;;;;0.57;0.57;;;;;;;;;;6363931;27;20147;-75
2022/10/02 11:27:07;;;;;;;0.85;0.85;;;;;;;;;;6354083;27;20386;-75
2022/10/02 11:30:19;;;;;;;0.32;0.32;;;;;;;;;;6362189;27;20479;-75
2022/10/02 11:33:38;;;;;;;0.10;0.10;;;;;;;;;;6355354;27;20023;-75
2022/10/02 11:36:51;;;;;;;0.50;0.50;;;;;;;;;;6360285;28;20015;-75
2022/10/02 11:40:11;;;;;;;0.77;0.75;;;;;;;;;;6359995;27;20066;-76
2022/10/02 11:43:17;;;;;;;0.10;0.10;;;;;;;;;;6366522;27;20026;-76
2022/10/02 11:46:34;;;;;;;0.28;0.28;;;;;;;;;;6365282;27;20003;-76
2022/10/02 11:49:58;;;;;;;0.47;0.47;;;;;;;;;;6352472;27;20474;-77
2022/10/02 11:53:09;;;;;;;0.90;0.43;;;;;;;;;;6368376;27;20019;-76
2022/10/02 11:56:13;;;;;;;2.50;0.98;;;;;;;;;;6354915;27;20226;-76
2022/10/02 11:59:32;;;;;;;0.17;0.17;;;;;;;;;;6342053;27;20046;-76
2022/10/02 12:02:34;;;;;;;0.10;0.10;;;;;;;;;;6368917;27;20429;-76
2022/10/02 12:05:41;;;;;;;2.92;1.85;;;;;;;;;;6371014;27;20020;-76
2022/10/02 12:08:52;;;;;;;0.10;0.10;;;;;;;;;;6364970;27;20470;-76
2022/10/02 12:12:15;;;;;;;1.02;0.35;;;;;;;;;;6357638;27;20030;-76
2022/10/02 12:15:40;;;;;;;0.10;0.10;;;;;;;;;;6365993;27;20479;-76
2022/10/02 12:18:56;;;;;;;0.30;0.30;;;;;;;;;;6340735;27;20509;-76
2022/10/02 12:28:54;;;;;;;0.95;0.95;;;;;;;;;;6356919;27;20015;-76
2022/10/02 12:32:00;;;;;;;0.52;0.52;;;;;;;;;;6366114;27;20027;-76
2022/10/02 12:35:19;;;;;;;2.20;1.42;;;;;;;;;;6364236;27;20024;-76
2022/10/02 12:38:31;;;;;;;0.15;0.15;;;;;;;;;;6365225;27;20023;-76
2022/10/02 12:41:39;;;;;;;0.47;0.47;;;;;;;;;;6365354;27;20020;-76
2022/10/02 12:44:58;;;;;;;0.20;0.20;;;;;;;;;;6364611;27;20012;-76
2022/10/02 12:48:17;;;;;;;0.63;0.63;;;;;;;;;;6363867;27;20026;-76
2022/10/02 12:51:39;;;;;;;0.22;0.22;;;;;;;;;;6364277;27;20079;-76
2022/10/02 12:54:48;;;;;;;1.75;1.55;;;;;;;;;;6363329;27;20026;-77
2022/10/02 12:57:52;;;;;;;0.30;0.30;;;;;;;;;;6358674;27;20043;-77
2022/10/02 13:01:07;;;;;;;0.40;0.40;;;;;;;;;;6362759;27;20423;-78
2022/10/02 13:04:19;;;;;;;0.25;0.25;;;;;;;;;;6357468;27;20027;-77
2022/10/02 13:07:38;;;;;;;0.45;0.45;;;;;;;;;;6344963;27;20128;-77
2022/10/02 13:10:39;;;;;;;0.40;0.30;;;;;;;;;;6361964;27;20476;-77
2022/10/02 13:13:42;;;;;;;2.30;1.83;;;;;;;;;;6339981;27;20015;-76
2022/10/02 13:16:45;;;;;;;0.10;0.10;;;;;;;;;;6363832;27;20535;-76
2022/10/02 13:19:55;;;;;;;0.50;0.50;;;;;;;;;;6352550;27;20020;-76
2022/10/02 13:23:07;;;;;;;0.35;0.35;;;;;;;;;;6350589;27;20103;-77
2022/10/02 13:26:18;;;;;;;1.33;0.73;;;;;;;;;;6363523;27;20015;-77
2022/10/02 13:29:33;;;;;;;0.55;0.55;;;;;;;;;;6350281;27;20015;-77
2022/10/02 13:32:41;;;;;;;0.73;0.73;;;;;;;;;;6349790;27;20012;-75
2022/10/02 13:35:56;;;;;;;0.30;0.30;;;;;;;;;;6355502;27;20103;-75
2022/10/02 13:38:56;;;;;;;0.52;0.52;;;;;;;;;;6358077;27;20479;-74
2022/10/02 13:42:17;;;;;;;0.23;0.23;;;;;;;;;;6359551;27;20079;-74
2022/10/02 13:45:28;;;;;;;0.30;0.30;;;;;;;;;;6296663;27;20030;-74
2022/10/02 13:48:47;;;;;;;0.75;0.75;;;;;;;;;;6358883;27;20192;-74
2022/10/02 13:51:56;;;;;;;1.10;1.08;;;;;;;;;;6340752;27;20016;-75
2022/10/02 13:54:56;;;;;;;1.05;1.00;;;;;;;;;;6362985;27;20445;-74
2022/10/02 13:58:07;;;;;;;2.55;2.25;;;;;;;;;;6360330;27;20460;-75
2022/10/02 14:01:10;;;;;;;3.78;2.05;;;;;;;;;;6340993;27;20031;-75
2022/10/02 14:04:29;;;;;;;0.47;0.47;;;;;;;;;;6353201;27;20017;-74
2022/10/02 14:07:35;;;;;;;2.97;2.78;;;;;;;;;;6362718;27;20014;-74
2022/10/02 14:10:41;;;;;;;2.10;1.98;;;;;;;;;;6349220;27;20019;-74
2022/10/02 14:13:54;;;;;;;2.28;1.23;;;;;;;;;;6355423;27;20351;-75
2022/10/02 14:16:54;;;;;;;1.50;1.40;;;;;;;;;;6341217;27;20023;-74
2022/10/02 14:20:13;;;;;;;2.40;2.20;;;;;;;;;;6356533;27;20059;-74
2022/10/02 14:23:20;;;;;;;0.30;0.30;;;;;;;;;;6341156;27;20019;-74
2022/10/02 14:26:23;;;;;;;2.08;1.50;;;;;;;;;;6353291;27;20028;-74
2022/10/02 14:29:34;;;;;;;1.90;1.27;;;;;;;;;;6363961;27;20026;-75
2022/10/02 14:32:34;;;;;;;1.50;0.67;;;;;;;;;;6347172;27;20043;-74
2022/10/02 14:35:43;;;;;;;0.15;0.15;;;;;;;;;;6359536;27;20057;-74
2022/10/02 14:38:58;;;;;;;0.52;0.52;;;;;;;;;;6355444;27;20020;-74
2022/10/02 14:42:08;;;;;;;1.98;1.88;;;;;;;;;;6360153;27;20038;-74
2022/10/02 14:45:20;;;;;;;0.75;0.75;;;;;;;;;;6365247;27;20050;-75
2022/10/02 14:48:20;;;;;;;;;;;;;;;;;;6334213;27;20019;-76
2022/10/02 14:51:39;;;;;;;0.20;0.20;;;;;;;;;;6363085;27;19934;-75
2022/10/02 14:54:42;;;;;;;1.77;1.10;;;;;;;;;;6354533;27;20099;-75
2022/10/02 14:57:49;;;;;;;0.10;0.10;;;;;;;;;;6355218;27;20130;-75
2022/10/02 15:00:55;;;;;;;0.20;0.20;;;;;;;;;;6360533;27;20203;-75
2022/10/02 15:03:56;;;;;;;2.05;0.85;;;;;;;;;;6367181;27;20463;-76
2022/10/02 15:06:58;;;;;;;1.77;1.27;;;;;;;;;;6352721;27;20027;-76
2022/10/02 15:10:17;;;;;;;3.38;2.40;;;;;;;;;;6342568;27;20106;-76
2022/10/02 15:13:29;;;;;;;2.55;2.30;;;;;;;;;;6344770;27;20030;-75
2022/10/02 15:20:10;;;;;;;8.52;2.78;;;;;;;;;;6319601;27;20035;-75
2022/10/02 15:23:11;;;;;;;1.95;1.85;;;;;;;;;;6353203;27;20020;-74
2022/10/02 15:26:47;;;;;;;7.60;3.45;;;;;;;;;;6344758;28;20026;-75
2022/10/02 15:30:02;;;;;;;5.68;1.88;;;;;;;;;;6237896;28;20033;-74
2022/10/02 15:33:08;;;;;;;2.10;1.92;;;;;;;;;;6356654;27;20682;-74
2022/10/02 15:36:26;;;;;;;3.80;2.58;;;;;;;;;;6350095;27;20114;-74
2022/10/02 15:39:35;;;;;;;1.27;1.02;;;;;;;;;;6363518;28;20371;-74
2022/10/02 15:42:42;;;;;;;3.10;2.63;;;;;;;;;;6351520;28;20034;-74
2022/10/02 15:45:57;;;;;;;1.85;1.75;;;;;;;;;;6334753;28;20023;-75
2022/10/02 15:49:00;;;;;;;1.70;1.60;;;;;;;;;;6358489;28;20498;-76
2022/10/02 15:52:09;;;;;;;2.80;2.22;;;;;;;;;;6361530;28;20094;-75
2022/10/02 15:55:33;;;;;;;3.35;3.13;;;;;;;;;;6355225;28;20022;-76
2022/10/02 15:58:52;;;;;;;3.88;1.50;;;;;;;;;;6354841;28;20031;-75
2022/10/02 16:01:52;;;;;;;3.17;2.17;;;;;;;;;;6353730;28;20179;-75
2022/10/02 16:05:04;;;;;;;1.25;1.17;;;;;;;;;;6328634;28;20012;-75
2022/10/02 16:08:23;;;;;;;0.98;0.80;;;;;;;;;;6352208;28;20016;-76
2022/10/02 16:11:35;;;;;;;4.97;1.60;;;;;;;;;;6353957;28;20073;-75
2022/10/02 16:14:41;;;;;;;1.35;1.05;;;;;;;;;;6351329;28;20054;-76
2022/10/02 16:17:51;;;;;;;2.80;2.60;;;;;;;;;;6358119;28;20019;-75
2022/10/02 16:21:06;;;;;;;5.15;4.75;;;;;;;;;;6357291;28;20053;-75
2022/10/02 16:24:24;;;;;;;5.05;4.43;;;;;;;;;;6359521;28;20030;-75
2022/10/02 16:27:45;;;;;;;8.02;6.38;;;;;;;;;;6359992;27;20054;-76
2022/10/02 16:30:51;;;;;;;5.22;3.53;;;;;;;;;;6359141;27;20018;-76
2022/10/02 16:34:16;;;;;;;4.45;3.30;;;;;;;;;;6349972;27;20537;-76
2022/10/02 16:37:23;;;;;;;2.33;2.15;;;;;;;;;;6362138;27;20031;-76
2022/10/02 16:40:56;;;;;;;1.60;1.50;;;;;;;;;;6349674;27;20352;-76
2022/10/02 16:44:01;;;;;;;2.03;1.60;;;;;;;;;;6322008;27;20052;-76
2022/10/02 16:47:04;;;;;;;1.02;1.02;;;;;;;;;;6362101;27;20027;-75
2022/10/02 16:50:13;;;;;;;4.57;3.10;;;;;;;;;;6343883;27;20494;-75
2022/10/02 16:53:22;;;;;;;2.05;1.85;;;;;;;;;;6346781;27;20023;-76
2022/10/02 16:56:31;;;;;;;6.90;3.75;;;;;;;;;;6346314;27;20432;-76
2022/10/02 16:59:41;;;;;;;3.97;3.60;;;;;;;;;;6366340;27;20023;-76
2022/10/02 17:02:45;;;;;;;2.17;2.08;;;;;;;;;;6357006;27;20046;-76
2022/10/02 17:05:51;;;;;;;3.92;3.53;;;;;;;;;;6364340;27;20045;-76
2022/10/02 17:09:10;;;;;;;4.78;3.38;;;;;;;;;;6366566;27;20055;-77
2022/10/02 17:12:26;;;;;;;3.22;3.03;;;;;;;;;;6363530;27;20026;-75
2022/10/02 17:15:41;;;;;;;3.78;2.80;;;;;;;;;;6352100;27;20454;-76
2022/10/02 17:18:50;;;;;;;2.88;2.42;;;;;;;;;;6368124;27;20030;-76
2022/10/02 17:21:56;;;;;;;1.85;1.75;;;;;;;;;;6352017;27;20483;-75
2022/10/02 17:25:15;;;;;;;3.42;2.30;;;;;;;;;;6365263;27;20102;-75
2022/10/02 17:28:16;;;;;;;2.40;1.80;;;;;;;;;;6364437;27;20118;-76
2022/10/02 17:31:30;;;;;;;2.73;1.63;;;;;;;;;;6365180;27;20029;-76
2022/10/02 17:34:32;;;;;;;5.03;4.60;;;;;;;;;;6368085;27;20015;-75
2022/10/02 17:37:42;;;;;;;1.80;1.73;;;;;;;;;;6364103;27;20106;-76
2022/10/02 17:41:05;;;;;;;2.70;2.60;;;;;;;;;;6367025;27;20054;-76
2022/10/02 17:44:32;;;;;;;4.70;4.13;;;;;;;;;;6365736;27;20382;-75
2022/10/02 17:47:41;;;;;;;3.85;3.53;;;;;;;;;;6366828;27;20034;-76
2022/10/02 17:50:53;;;;;;;3.92;3.63;;;;;;;;;;6367477;27;20090;-76
2022/10/02 17:57:30;;;;;;;6.22;5.63;;;;;;;;;;6368046;27;20039;-76
2022/10/02 18:00:33;;;;;;;2.85;2.65;;;;;;;;;;6349577;27;20023;-76
2022/10/02 18:03:49;;;;;;;3.17;2.88;;;;;;;;;;6364555;27;20027;-75
2022/10/02 18:06:52;;;;;;;7.07;6.43;;;;;;;;;;6332389;27;20405;-76
2022/10/02 18:10:02;;;;;;;11.35;7.00;;;;;;;;;;6363675;27;20059;-76
2022/10/02 18:13:02;;;;;;;6.53;5.40;;;;;;;;;;6365264;27;20019;-76
2022/10/02 18:16:09;;;;;;;4.20;3.90;;;;;;;;;;6346068;27;20130;-75
2022/10/02 18:19:35;;;;;;;2.97;2.75;;;;;;;;;;6364712;27;20027;-75
2022/10/02 18:22:45;;;;;;;4.47;2.95;;;;;;;;;;6360169;27;20038;-74
2022/10/02 18:25:49;;;;;;;1.45;1.45;;;;;;;;;;6361593;27;20463;-75
2022/10/02 18:28:50;;;;;;;3.45;3.10;;;;;;;;;;6352561;27;20019;-76
2022/10/02 18:32:08;;;;;;;2.90;1.67;;;;;;;;;;6367189;27;20030;-76
2022/10/02 18:35:21;;;;;;;1.58;1.48;;;;;;;;;;6346657;27;20118;-74
2022/10/02 18:38:31;;;;;;;3.30;2.33;;;;;;;;;;6368407;27;20447;-74
2022/10/02 18:41:35;;;;;;;9.02;3.38;;;;;;;;;;6345778;27;20497;-76
2022/10/02 18:44:55;;;;;;;0.50;0.50;;;;;;;;;;6362966;27;20024;-75
2022/10/02 18:48:12;;;;;;;0.95;0.95;;;;;;;;;;6321098;27;20039;-75
2022/10/02 18:51:31;;;;;;;5.40;2.95;;;;;;;;;;6346372;27;20031;-75
2022/10/02 18:54:44;;;;;;;3.20;2.92;;;;;;;;;;6366764;27;20064;-75
2022/10/02 18:57:44;;;;;;;11.52;4.10;;;;;;;;;;6364194;27;20055;-77
2022/10/02 19:00:44;;;;;;;5.17;4.77;;;;;;;;;;6344768;27;20027;-76
2022/10/02 19:03:54;;;;;;;3.37;3.07;;;;;;;;;;6366083;27;20018;-76
2022/10/02 19:07:17;;;;;;;7.50;5.18;;;;;;;;;;6365473;27;20022;-75